createdAt,value
2023-03-28T00:01:37.618Z,99801.13
2023-03-28T00:04:07.443Z,99799.81
2023-03-28T00:06:38.533Z,99801.28
2023-03-28T00:09:08.325Z,99799.72
2023-03-28T00:11:37.916Z,99799.16
2023-03-28T00:14:08.499Z,99791.34
2023-03-28T00:16:41.917Z,99791.41
2023-03-28T00:19:13.551Z,99787.13
2023-03-28T00:21:47.180Z,99788.91
2023-03-28T00:24:18.922Z,99793.22
2023-03-28T00:26:54.824Z,99792.44
2023-03-28T00:29:26.270Z,99781.03
2023-03-28T00:31:58.779Z,99788.75
2023-03-28T00:34:28.912Z,99793.97
2023-03-28T00:36:58.624Z,99791.25
2023-03-28T00:39:29.666Z,99786.88
2023-03-28T00:41:59.315Z,99787.53
2023-03-28T00:44:46.078Z,99781.56
2023-03-28T00:47:28.518Z,99782.34
2023-03-28T00:50:03.191Z,99786.59
2023-03-28T00:52:39.257Z,99778.91
2023-03-28T00:55:13.019Z,99791.22
2023-03-28T00:57:43.321Z,99787.72
2023-03-28T01:00:17.876Z,99771.34
2023-03-28T01:02:53.461Z,99787.00
2023-03-28T01:05:29.277Z,99784.44
2023-03-28T01:08:02.842Z,99781.03
2023-03-28T01:10:34.809Z,99778.66
2023-03-28T01:13:05.806Z,99786.81
2023-03-28T01:15:35.602Z,99796.78
2023-03-28T01:18:11.757Z,99782.34
2023-03-28T01:21:24.560Z,99775.66
2023-03-28T01:24:33.900Z,99773.41
2023-03-28T01:27:09.948Z,99769.31
2023-03-28T01:30:15.578Z,99764.25
2023-03-28T01:33:11.921Z,99766.66
2023-03-28T01:36:09.921Z,99766.66
2023-03-28T01:38:50.128Z,99766.66
2023-03-28T01:41:26.006Z,99763.28
2023-03-28T01:44:07.308Z,99756.72
2023-03-28T01:46:41.753Z,99755.94
2023-03-28T01:49:18.314Z,99762.94
2023-03-28T01:51:55.502Z,99753.53
2023-03-28T01:54:33.482Z,99751.72
2023-03-28T01:57:10.683Z,99753.47
2023-03-28T01:59:44.300Z,99756.91
2023-03-28T02:02:20.790Z,99760.41
2023-03-28T02:04:52.929Z,99757.81
2023-03-28T02:07:29.054Z,99752.75
2023-03-28T02:10:01.924Z,99738.97
2023-03-28T02:12:38.148Z,99744.97
2023-03-28T02:15:09.046Z,99749.31
2023-03-28T02:17:45.619Z,99751.19
2023-03-28T02:20:19.950Z,99754.78
2023-03-28T02:22:54.179Z,99749.59
2023-03-28T02:25:26.497Z,99751.34
2023-03-28T02:28:01.431Z,99752.19
2023-03-28T02:30:31.021Z,99747.00
2023-03-28T02:33:04.078Z,99759.19
2023-03-28T02:35:49.758Z,99755.81
2023-03-28T02:38:29.851Z,99760.09
2023-03-28T02:41:10.454Z,99756.69
2023-03-28T02:43:59.047Z,99759.34
2023-03-28T02:46:33.160Z,99762.59
2023-03-28T02:49:25.677Z,99765.16
2023-03-28T02:52:09.432Z,99746.84
2023-03-28T02:54:44.763Z,99762.28
2023-03-28T02:57:21.444Z,99766.47
2023-03-28T02:59:56.841Z,99762.88
2023-03-28T03:02:29.248Z,99755.94
2023-03-28T03:05:01.998Z,99762.06
2023-03-28T03:07:32.294Z,99753.41
2023-03-28T03:10:01.932Z,99748.06
2023-03-28T03:12:34.040Z,99751.53
2023-03-28T03:15:04.229Z,99761.97
2023-03-28T03:17:33.835Z,99753.34
2023-03-28T03:20:07.036Z,99768.13
2023-03-28T03:22:37.380Z,99764.75
2023-03-28T03:25:08.394Z,99765.75
2023-03-28T03:27:41.212Z,99771.03
2023-03-28T03:30:12.111Z,99771.13
2023-03-28T03:32:44.224Z,99762.50
2023-03-28T03:35:14.272Z,99772.97
2023-03-28T03:37:44.053Z,99781.78
2023-03-28T03:40:14.206Z,99776.72
2023-03-28T03:42:46.326Z,99779.41
2023-03-28T03:45:15.981Z,99775.16
2023-03-28T03:47:45.606Z,99778.69
2023-03-28T03:50:15.407Z,99782.13
2023-03-28T03:52:44.945Z,99776.91
2023-03-28T03:55:14.680Z,99779.41
2023-03-28T03:57:46.787Z,99783.69
2023-03-28T04:00:17.404Z,99780.28
2023-03-28T04:02:47.040Z,99793.22
2023-03-28T04:05:17.068Z,99787.25
2023-03-28T04:07:46.710Z,99795.94
2023-03-28T04:10:16.266Z,99801.56
2023-03-28T04:12:48.486Z,99804.19
2023-03-28T04:15:18.254Z,99790.69
2023-03-28T04:17:50.413Z,99792.88
2023-03-28T04:20:21.168Z,99802.34
2023-03-28T04:22:50.756Z,99794.59
2023-03-28T04:25:20.575Z,99808.44
2023-03-28T04:27:54.781Z,99817.28
2023-03-28T04:30:26.003Z,99792.34
2023-03-28T04:32:55.672Z,99828.72
2023-03-28T04:35:26.416Z,99845.97
2023-03-28T04:37:58.027Z,99859.84
2023-03-28T04:40:28.337Z,99842.00
2023-03-28T04:43:00.479Z,99855.13
2023-03-28T04:45:30.225Z,99862.78
2023-03-28T04:47:59.818Z,99861.69
2023-03-28T04:50:29.373Z,99856.91
2023-03-28T04:52:58.885Z,99852.50
2023-03-28T04:55:28.791Z,99876.72
2023-03-28T04:58:01.091Z,99871.50
2023-03-28T05:00:30.779Z,99890.56
2023-03-28T05:03:05.149Z,99886.53
2023-03-28T05:05:35.496Z,99893.84
2023-03-28T05:08:05.263Z,99901.19
2023-03-28T05:10:34.838Z,99904.53
2023-03-28T05:13:07.160Z,99904.41
2023-03-28T05:15:36.765Z,99905.25
2023-03-28T05:18:07.085Z,99919.41
2023-03-28T05:20:36.881Z,99918.94
2023-03-28T05:23:07.495Z,99929.69
2023-03-28T05:25:37.360Z,99929.91
2023-03-28T05:28:09.633Z,99923.31
2023-03-28T05:30:39.180Z,99930.50
2023-03-28T05:33:08.806Z,99944.75
2023-03-28T05:35:39.378Z,99947.53
2023-03-28T05:38:09.217Z,99961.59
2023-03-28T05:40:39.807Z,99954.59
2023-03-28T05:43:11.939Z,99958.53
2023-03-28T05:45:42.005Z,99955.59
2023-03-28T05:48:11.632Z,99965.00
2023-03-28T05:50:41.280Z,99975.75
2023-03-28T05:53:10.962Z,99987.16
2023-03-28T05:55:40.623Z,99989.16
2023-03-28T05:58:13.061Z,99992.69
2023-03-28T06:00:42.896Z,99992.16
2023-03-28T06:03:16.469Z,99999.34
2023-03-28T06:05:47.430Z,99999.59
2023-03-28T06:08:16.988Z,99995.47
2023-03-28T06:10:46.775Z,100000.53
2023-03-28T06:13:19.714Z,100004.06
2023-03-28T06:15:49.290Z,100007.31
2023-03-28T06:18:18.802Z,100021.44
2023-03-28T06:20:48.459Z,100028.69
2023-03-28T06:23:17.985Z,100038.03
2023-03-28T06:25:47.809Z,100042.44
2023-03-28T06:28:19.981Z,100046.59
2023-03-28T06:30:51.797Z,100050.94
2023-03-28T06:33:21.374Z,100050.03
2023-03-28T06:35:51.681Z,100050.88
2023-03-28T06:38:21.559Z,100064.41
2023-03-28T06:40:51.131Z,100056.50
2023-03-28T06:43:23.255Z,100067.56
2023-03-28T06:45:52.831Z,100071.88
2023-03-28T06:48:22.451Z,100083.19
2023-03-28T06:50:52.825Z,100095.06
2023-03-28T06:53:22.760Z,100094.44
2023-03-28T06:55:52.689Z,100092.66
2023-03-28T06:58:26.217Z,100110.25
2023-03-28T07:00:56.332Z,100108.28
2023-03-28T07:03:25.930Z,100120.41
2023-03-28T07:05:55.690Z,100123.31
2023-03-28T07:08:25.746Z,100112.19
2023-03-28T07:10:55.305Z,100101.97
2023-03-28T07:13:27.446Z,100123.16
2023-03-28T07:16:04.148Z,100126.38
2023-03-28T07:18:33.840Z,100126.09
2023-03-28T07:21:09.586Z,100127.47
2023-03-28T07:23:39.506Z,100145.16
2023-03-28T07:26:10.046Z,100142.06
2023-03-28T07:28:42.487Z,100145.88
2023-03-28T07:31:12.454Z,100155.25
2023-03-28T07:33:42.443Z,100161.28
2023-03-28T07:36:14.785Z,100159.47
2023-03-28T07:38:47.278Z,100172.06
2023-03-28T07:41:18.313Z,100160.16
2023-03-28T07:43:50.432Z,100170.47
2023-03-28T07:46:21.189Z,100179.84
2023-03-28T07:48:50.834Z,100187.59
2023-03-28T07:51:20.702Z,100188.09
2023-03-28T07:53:50.562Z,100186.16
2023-03-28T07:56:20.173Z,100189.38
2023-03-28T07:58:52.264Z,100200.31
2023-03-28T08:01:23.027Z,100196.56
2023-03-28T08:03:52.987Z,100201.13
2023-03-28T08:06:32.180Z,100217.16
2023-03-28T08:09:02.567Z,100199.75
2023-03-28T08:11:32.108Z,100209.88
2023-03-28T08:14:04.472Z,100210.09
2023-03-28T08:16:34.676Z,100213.41
2023-03-28T08:21:39.507Z,100203.53
2023-03-28T08:24:12.906Z,100215.13
2023-03-28T08:26:46.733Z,100207.69
2023-03-28T08:29:20.842Z,100218.16
2023-03-28T08:31:50.851Z,100202.13
2023-03-28T08:34:20.537Z,100214.06
2023-03-28T08:36:50.148Z,100223.06
2023-03-28T08:39:19.672Z,100218.28
2023-03-28T08:42:06.353Z,100219.94
2023-03-28T08:44:53.742Z,100221.25
2023-03-28T08:47:28.310Z,100210.78
2023-03-28T08:50:05.558Z,100218.22
2023-03-28T08:52:35.557Z,100236.59
2023-03-28T08:55:09.080Z,100240.25
2023-03-28T08:57:39.242Z,100237.47
2023-03-28T09:00:19.592Z,100239.50
2023-03-28T09:02:51.786Z,100245.56
2023-03-28T09:05:35.017Z,100259.81
2023-03-28T09:08:19.785Z,100249.25
2023-03-28T09:10:56.053Z,100265.34
2023-03-28T09:13:38.983Z,100251.88
2023-03-28T09:16:39.945Z,100248.94
2023-03-28T09:19:34.199Z,100262.34
2023-03-28T09:22:21.951Z,100263.13
2023-03-28T09:25:08.566Z,100258.06
2023-03-28T09:27:38.711Z,100268.66
2023-03-28T09:30:20.915Z,100291.13
2023-03-28T09:32:58.480Z,100311.13
2023-03-28T09:35:30.600Z,100310.06
2023-03-28T09:38:05.434Z,100308.44
2023-03-28T09:40:36.704Z,100293.38
2023-03-28T09:43:18.241Z,100303.06
2023-03-28T09:45:54.933Z,100297.69
2023-03-28T09:48:31.170Z,100296.34
2023-03-28T09:51:00.991Z,100304.03
2023-03-28T09:53:33.308Z,100312.84
2023-03-28T09:56:06.096Z,100309.72
2023-03-28T09:58:54.082Z,100299.88
2023-03-28T10:01:32.913Z,100299.28
2023-03-28T10:04:05.203Z,100308.25
2023-03-28T10:06:35.010Z,100299.09
2023-03-28T10:09:21.072Z,100320.00
2023-03-28T10:11:54.644Z,100311.59
2023-03-28T10:14:35.870Z,100320.34
2023-03-28T10:17:08.382Z,100313.84
2023-03-28T10:19:44.804Z,100318.53
2023-03-28T10:22:17.844Z,100316.16
2023-03-28T10:24:48.894Z,100327.81
2023-03-28T10:27:24.134Z,100292.28
2023-03-28T10:29:55.074Z,100327.94
2023-03-28T10:32:29.943Z,100322.47
2023-03-28T10:35:10.116Z,100336.13
2023-03-28T10:37:39.728Z,100335.91
2023-03-28T10:40:26.436Z,100348.53
2023-03-28T10:42:56.108Z,100341.84
2023-03-28T10:45:33.313Z,100342.91
2023-03-28T10:48:06.972Z,100342.91
2023-03-28T10:50:44.936Z,100352.00
2023-03-28T10:53:35.326Z,100353.16
2023-03-28T10:56:14.658Z,100343.72
2023-03-28T10:58:53.429Z,100353.84
2023-03-28T11:01:25.116Z,100347.22
2023-03-28T11:04:21.387Z,100362.50
2023-03-28T11:07:01.948Z,100374.91
2023-03-28T11:09:42.521Z,100372.34
2023-03-28T11:12:28.582Z,100355.25
2023-03-28T11:15:09.028Z,100351.31
2023-03-28T11:17:48.886Z,100353.97
2023-03-28T11:20:38.660Z,100395.66
2023-03-28T11:23:43.516Z,100369.53
2023-03-28T11:26:19.038Z,100385.06
2023-03-28T11:29:08.997Z,100381.53
2023-03-28T11:31:43.986Z,100375.22
2023-03-28T11:34:22.966Z,100376.56
2023-03-28T11:36:56.662Z,100396.94
2023-03-28T11:39:38.935Z,100391.66
2023-03-28T11:42:18.476Z,100358.59
2023-03-28T11:45:03.614Z,100394.88
2023-03-28T11:47:39.837Z,100404.38
2023-03-28T11:50:15.361Z,100408.47
2023-03-28T11:52:50.891Z,100411.41
2023-03-28T11:55:23.833Z,100412.31
2023-03-28T11:58:00.011Z,100434.88
2023-03-28T12:00:34.613Z,100402.38
2023-03-28T12:03:17.194Z,100422.25
2023-03-28T12:05:57.796Z,100418.63
2023-03-28T12:08:37.630Z,100381.75
2023-03-28T12:11:10.821Z,100410.66
2023-03-28T12:13:55.443Z,100404.53
2023-03-28T12:16:40.709Z,100423.59
2023-03-28T12:19:17.785Z,100397.75
2023-03-28T12:21:52.743Z,100397.22
2023-03-28T12:24:30.063Z,100425.31
2023-03-28T12:27:09.491Z,100399.56
2023-03-28T12:29:47.398Z,100440.13
2023-03-28T12:32:39.354Z,100428.22
2023-03-28T12:35:18.119Z,100435.44
2023-03-28T12:38:05.509Z,100437.31
2023-03-28T12:40:52.276Z,100429.59
2023-03-28T12:43:26.198Z,100439.84
2023-03-28T12:46:02.901Z,100434.13
2023-03-28T12:48:39.705Z,100434.16
2023-03-28T12:51:16.565Z,100422.81
2023-03-28T12:53:49.039Z,100424.66
2023-03-28T12:56:19.179Z,100426.31
2023-03-28T12:58:49.581Z,100414.59
2023-03-28T13:01:35.914Z,100416.88
2023-03-28T13:04:16.764Z,100412.41
2023-03-28T13:06:53.260Z,100422.28
2023-03-28T13:09:35.598Z,100425.41
2023-03-28T13:12:13.201Z,100399.13
2023-03-28T13:14:44.301Z,100417.22
2023-03-28T13:17:24.522Z,100454.44
2023-03-28T13:19:56.048Z,100462.63
2023-03-28T13:22:35.024Z,100471.00
2023-03-28T13:25:27.500Z,100460.91
2023-03-28T13:28:00.834Z,100458.31
2023-03-28T13:30:32.442Z,100462.63
2023-03-28T13:33:19.357Z,100468.81
2023-03-28T13:35:50.536Z,100446.81
2023-03-28T13:38:35.134Z,100444.63
2023-03-28T13:41:07.087Z,100450.16
2023-03-28T13:43:44.992Z,100457.78
2023-03-28T13:46:16.822Z,100452.44
2023-03-28T13:48:55.103Z,100460.41
2023-03-28T13:51:27.573Z,100447.44
2023-03-28T13:53:57.208Z,100442.19
2023-03-28T13:56:28.681Z,100447.16
2023-03-28T13:59:01.465Z,100460.94
2023-03-28T14:01:38.100Z,100446.06
2023-03-28T14:04:19.058Z,100450.19
2023-03-28T14:06:48.778Z,100447.69
2023-03-28T14:09:22.889Z,100450.81
2023-03-28T14:11:53.259Z,100447.72
2023-03-28T14:14:31.546Z,100442.88
2023-03-28T14:17:04.130Z,100440.09
2023-03-28T14:19:43.177Z,100464.28
2023-03-28T14:22:18.011Z,100458.97
2023-03-28T14:24:49.841Z,100450.59
2023-03-28T14:27:31.889Z,100466.75
2023-03-28T14:30:02.554Z,100439.69
2023-03-28T14:32:36.304Z,100469.72
2023-03-28T14:35:24.716Z,100476.59
2023-03-28T14:37:56.132Z,100453.78
2023-03-28T14:40:35.700Z,100466.22
2023-03-28T14:43:10.227Z,100477.97
2023-03-28T14:45:42.735Z,100477.75
2023-03-28T14:48:19.248Z,100493.22
2023-03-28T14:50:53.534Z,100478.78
2023-03-28T14:53:25.062Z,100503.44
2023-03-28T14:55:56.785Z,100475.41
2023-03-28T14:58:28.583Z,100512.81
2023-03-28T15:01:02.254Z,100523.69
2023-03-28T15:03:39.172Z,100514.88
2023-03-28T15:06:18.284Z,100510.34
2023-03-28T15:08:48.413Z,100534.91
2023-03-28T15:11:22.468Z,100531.53
2023-03-28T15:13:53.776Z,100534.34
2023-03-28T15:16:26.967Z,100537.84
2023-03-28T15:19:07.082Z,100522.16
2023-03-28T15:21:41.370Z,100541.44
2023-03-28T15:24:14.561Z,100522.41
2023-03-28T15:26:47.058Z,100525.50
2023-03-28T15:29:20.321Z,100542.53
2023-03-28T15:31:50.678Z,100535.09
2023-03-28T15:34:26.972Z,100544.19
2023-03-28T15:37:01.566Z,100538.00
2023-03-28T15:39:33.152Z,100550.00
2023-03-28T15:42:04.154Z,100554.59
2023-03-28T15:44:36.068Z,100569.97
2023-03-28T15:47:08.325Z,100572.78
2023-03-28T15:49:39.752Z,100559.56
2023-03-28T15:52:22.378Z,100561.19
2023-03-28T15:54:54.605Z,100560.16
2023-03-28T15:57:25.811Z,100560.22
2023-03-28T15:59:56.387Z,100570.63
2023-03-28T16:02:37.524Z,100572.94
2023-03-28T16:05:09.192Z,100584.38
2023-03-28T16:07:51.621Z,100583.19
2023-03-28T16:10:23.048Z,100587.47
2023-03-28T16:12:53.343Z,100591.56
2023-03-28T16:15:24.038Z,100591.41
2023-03-28T16:17:55.736Z,100584.38
2023-03-28T16:20:26.431Z,100597.31
2023-03-28T16:22:58.562Z,100599.75
2023-03-28T16:25:28.622Z,100605.72
2023-03-28T16:27:58.529Z,100598.44
2023-03-28T16:30:31.012Z,100607.88
2023-03-28T16:33:01.224Z,100601.56
2023-03-28T16:35:31.351Z,100610.09
2023-03-28T16:38:03.939Z,100617.69
2023-03-28T16:40:33.944Z,100610.69
2023-03-28T16:43:03.556Z,100619.13
2023-03-28T16:45:33.582Z,100627.56
2023-03-28T16:48:03.196Z,100622.16
2023-03-28T16:50:32.803Z,100628.75
2023-03-28T16:53:06.729Z,100630.09
2023-03-28T16:55:36.538Z,100633.44
2023-03-28T16:58:06.773Z,100627.81
2023-03-28T17:00:36.462Z,100635.16
2023-03-28T17:03:06.148Z,100650.25
2023-03-28T17:05:38.404Z,100645.84
2023-03-28T17:08:10.743Z,100649.59
2023-03-28T17:10:42.980Z,100655.59
2023-03-28T17:13:12.682Z,100656.75
2023-03-28T17:15:42.579Z,100659.72
2023-03-28T17:18:12.360Z,100663.75
2023-03-28T17:20:41.911Z,100663.31
2023-03-28T17:23:14.087Z,100664.31
2023-03-28T17:25:53.913Z,100668.00
2023-03-28T17:28:24.506Z,100667.00
2023-03-28T17:30:54.202Z,100663.00
2023-03-28T17:33:24.719Z,100668.94
2023-03-28T17:35:54.489Z,100668.19
2023-03-28T17:38:26.687Z,100674.25
2023-03-28T17:40:56.224Z,100676.81
2023-03-28T17:43:25.808Z,100681.63
2023-03-28T17:45:56.686Z,100680.31
2023-03-28T17:48:26.225Z,100674.03
2023-03-28T17:50:56.226Z,100683.28
2023-03-28T17:53:28.420Z,100683.84
2023-03-28T17:55:59.137Z,100687.03
2023-03-28T17:58:28.838Z,100693.16
2023-03-28T18:00:59.010Z,100691.78
2023-03-28T18:03:28.836Z,100695.75
2023-03-28T18:06:00.682Z,100701.25
2023-03-28T18:08:33.440Z,100698.31
2023-03-28T18:11:03.679Z,100706.88
2023-03-28T18:13:33.214Z,100703.47
2023-03-28T18:16:04.540Z,100713.06
2023-03-28T18:18:34.701Z,100708.44
2023-03-28T18:21:04.487Z,100713.34
2023-03-28T18:23:37.021Z,100713.06
2023-03-28T18:26:06.912Z,100716.66
2023-03-28T18:28:36.956Z,100714.81
2023-03-28T18:31:11.066Z,100719.13
2023-03-28T18:33:41.343Z,100718.03
2023-03-28T18:36:12.312Z,100725.69
2023-03-28T18:38:46.730Z,100732.13
2023-03-28T18:41:16.693Z,100729.97
2023-03-28T18:43:46.361Z,100733.00
2023-03-28T18:46:16.351Z,100732.41
2023-03-28T18:48:46.706Z,100736.25
2023-03-28T18:51:16.328Z,100734.72
2023-03-28T18:53:48.486Z,100736.75
2023-03-28T18:56:18.630Z,100737.22
2023-03-28T18:58:50.467Z,100739.06
2023-03-28T19:01:20.746Z,100737.72
2023-03-28T19:03:50.690Z,100743.59
2023-03-28T19:06:20.416Z,100742.78
2023-03-28T19:08:54.058Z,100742.44
2023-03-28T19:11:23.699Z,100741.44
2023-03-28T19:13:53.258Z,100738.09
2023-03-28T19:16:22.898Z,100743.69
2023-03-28T19:18:52.502Z,100736.41
2023-03-28T19:21:22.156Z,100747.72
2023-03-28T19:23:54.311Z,100736.13
2023-03-28T19:26:24.098Z,100732.03
2023-03-28T19:28:53.754Z,100733.81
2023-03-28T19:31:24.855Z,100735.84
2023-03-28T19:33:54.498Z,100734.22
2023-03-28T19:36:24.131Z,100732.69
2023-03-28T19:38:56.362Z,100743.22
2023-03-28T19:41:27.594Z,100732.06
2023-03-28T19:43:57.931Z,100739.44
2023-03-28T19:46:33.102Z,100734.00
2023-03-28T19:49:07.140Z,100735.66
2023-03-28T19:51:37.179Z,100746.59
2023-03-28T19:54:09.390Z,100740.09
2023-03-28T19:56:39.049Z,100750.72
2023-03-28T19:59:08.693Z,100743.59
2023-03-28T20:01:38.389Z,100747.22
2023-03-28T20:04:08.568Z,100753.81
2023-03-28T20:06:38.187Z,100744.53
2023-03-28T20:09:10.429Z,100744.75
2023-03-28T20:11:42.221Z,100739.28
2023-03-28T20:14:17.179Z,100740.31
2023-03-28T20:16:46.728Z,100744.34
2023-03-28T20:19:18.268Z,100740.09
2023-03-28T20:21:49.381Z,100739.19
2023-03-28T20:24:21.508Z,100738.56
2023-03-28T20:26:51.552Z,100737.41
2023-03-28T20:29:21.815Z,100737.09
2023-03-28T20:31:51.589Z,100730.53
2023-03-28T20:34:21.280Z,100726.44
2023-03-28T20:36:50.814Z,100719.97
2023-03-28T20:39:26.336Z,100721.84
2023-03-28T20:41:56.053Z,100725.75
2023-03-28T20:44:30.028Z,100727.75
2023-03-28T20:47:00.234Z,100724.81
2023-03-28T20:49:29.827Z,100729.78
2023-03-28T20:51:59.402Z,100731.63
2023-03-28T20:54:31.750Z,100733.09
2023-03-28T20:57:01.629Z,100730.81
2023-03-28T20:59:32.276Z,100731.41
2023-03-28T21:02:02.294Z,100730.16
2023-03-28T21:04:32.245Z,100729.47
2023-03-28T21:07:02.555Z,100730.97
2023-03-28T21:09:34.642Z,100728.44
2023-03-28T21:12:04.148Z,100731.91
2023-03-28T21:14:33.657Z,100728.03
2023-03-28T21:17:07.473Z,100726.81
2023-03-28T21:19:37.412Z,100730.41
2023-03-28T21:22:07.205Z,100730.13
2023-03-28T21:24:39.338Z,100730.50
2023-03-28T21:27:08.919Z,100732.91
2023-03-28T21:29:39.067Z,100737.72
2023-03-28T21:32:08.923Z,100731.41
2023-03-28T21:34:39.196Z,100733.97
2023-03-28T21:37:08.840Z,100741.31
2023-03-28T21:39:41.101Z,100745.28
2023-03-28T21:42:10.643Z,100751.31
2023-03-28T21:44:40.226Z,100742.44
2023-03-28T21:47:10.505Z,100747.34
2023-03-28T21:49:40.266Z,100747.75
2023-03-28T21:52:09.795Z,100745.28
2023-03-28T21:54:41.995Z,100754.09
2023-03-28T21:57:11.562Z,100748.66
2023-03-28T21:59:41.463Z,100743.78
2023-03-28T22:02:11.237Z,100749.75
2023-03-28T22:04:41.213Z,100753.69
2023-03-28T22:07:10.939Z,100752.69
2023-03-28T22:09:44.715Z,100753.56
2023-03-28T22:12:14.999Z,100755.84
2023-03-28T22:14:44.609Z,100749.47
2023-03-28T22:17:14.121Z,100746.69
2023-03-28T22:19:43.947Z,100752.59
2023-03-28T22:22:13.806Z,100752.81
2023-03-28T22:24:46.273Z,100756.91
2023-03-28T22:27:16.580Z,100759.28
2023-03-28T22:29:46.122Z,100751.00
2023-03-28T22:32:15.722Z,100751.44
2023-03-28T22:34:45.272Z,100752.31
2023-03-28T22:37:15.490Z,100751.63
2023-03-28T22:39:47.828Z,100751.03
2023-03-28T22:42:17.692Z,100752.41
2023-03-28T22:44:48.341Z,100747.88
2023-03-28T22:47:18.190Z,100739.72
2023-03-28T22:49:48.410Z,100747.84
2023-03-28T22:52:19.587Z,100740.59
2023-03-28T22:54:52.975Z,100749.72
2023-03-28T22:57:22.550Z,100744.47
2023-03-28T22:59:53.321Z,100746.72
2023-03-28T23:02:22.913Z,100742.75
2023-03-28T23:04:54.332Z,100740.75
2023-03-28T23:07:24.339Z,100733.81
2023-03-28T23:09:56.964Z,100736.28
2023-03-28T23:12:26.505Z,100735.06
2023-03-28T23:14:56.651Z,100727.25
2023-03-28T23:17:26.581Z,100725.72
2023-03-28T23:19:56.202Z,100725.03
2023-03-28T23:22:25.858Z,100721.72
2023-03-28T23:24:57.982Z,100723.53
2023-03-28T23:27:27.675Z,100716.97
2023-03-28T23:29:57.247Z,100718.25
2023-03-28T23:32:26.777Z,100716.75
2023-03-28T23:34:56.822Z,100722.59
2023-03-28T23:37:27.723Z,100722.94
2023-03-28T23:40:00.331Z,100723.75
2023-03-28T23:42:29.835Z,100731.34
2023-03-28T23:44:59.454Z,100726.53
2023-03-28T23:47:29.061Z,100725.53
2023-03-28T23:49:58.666Z,100728.41
2023-03-28T23:52:28.219Z,100721.16
2023-03-28T23:55:00.317Z,100719.19
2023-03-28T23:57:30.259Z,100716.09
2023-03-28T23:59:59.931Z,100718.53
